Flight Track Log - Related Links

Times and Time Zones

All times are in EDT time to prevent confusion due to time zone crossing. See the JBU56 flight status page for this flight to view local times or setup timezone preferences in your user account.

Time Position Orientation Groundspeed Altitude Reporting Facility
EDT Latitude Longitude Course Direction KTS MPH feet Rate Location/Type
Fri 09:09:07 AM 38.9833 -77.5167 67° East 194 223 2,300  Level Potomac TRACON
Fri 09:10:07 AM 39.0333 -77.5500 333° Northwest 243 280 4,300 2,650 Climbing Potomac TRACON
Fri 09:11:00 AM 39.1752 -77.0686 90° East  Level Estimated
Fri 09:11:07 AM 39.1000 -77.5167 21° North 256 295 7,600  Level Potomac TRACON
Fri 09:12:00 AM 39.2319 -76.9703 74° East  Level Estimated
Fri 09:12:07 AM 39.1667 -77.4667 30° Northeast 285 328 10,000  Level Potomac TRACON
Fri 09:13:00 AM 39.2715 -76.9016 90° East  Level Estimated
Fri 09:13:39 AM 39.1744 -77.2972 87° East 357 411 11,600  Level Washington Center
Fri 09:14:00 AM 39.3110 -76.8329 67° East  Level Estimated
Fri 09:14:40 AM 39.1364 -77.1783 112° Southeast 352 405 13,900  Level Washington Center
Fri 09:15:41 AM 39.0983 -77.0492 111° Southeast 363 418 16,200 2,067 Climbing Washington Center
Fri 09:16:39 AM 39.0875 -76.9072 96° East 374 430 18,000 1,424 Climbing Washington Center
Fri 09:17:39 AM 39.1014 -76.7658 83° East 386 444 19,000 767 Climbing Washington Center
Fri 09:23:10 AM 39.1770 -76.0020 83° East 402 463 23,000 642 Climbing FlightAware ADS-B
Fri 09:23:53 AM 39.1870 -75.9150 82° East 402 463 23,000  Level FlightAware ADS-B
Fri 09:24:29 AM 39.1950 -75.8420 82° East 402 463 23,000 2,613 Level FlightAware ADS-B
Fri 09:24:55 AM 39.2650 -75.7860 32° Northeast 402 463 25,700 4,000 Climbing FlightAware ADS-B
Fri 09:25:20 AM 39.3010 -75.7400 45° Northeast 411 473 26,400 1,600 Climbing FlightAware ADS-B
Fri 09:25:55 AM 39.3500 -75.6770 45° Northeast 412 474 27,300 1,385 Climbing FlightAware ADS-B
Fri 09:26:25 AM 39.3860 -75.6290 46° Northeast 417 480 27,900 1,200 Climbing FlightAware ADS-B
Fri 09:26:40 AM 39.4090 -75.6000 44° Northeast 420 483 28,200 1,200 Climbing FlightAware ADS-B
Fri 09:27:20 AM 39.4650 -75.5260 46° Northeast 428 493 29,000 1,371 Climbing FlightAware ADS-B
Fri 09:27:50 AM 39.5080 -75.4710 45° Northeast 432 497 29,800 1,385 Climbing FlightAware ADS-B
Fri 09:28:25 AM 39.5570 -75.4060 46° Northeast 429 494 30,500 1,029 Climbing FlightAware ADS-B
Fri 09:29:00 AM 39.6050 -75.3430 45° Northeast 436 502 31,000 423 Climbing FlightAware ADS-B
Fri 09:29:36 AM 39.6530 -75.2800 45° Northeast 438 504 31,000  Level FlightAware ADS-B
Fri 09:30:18 AM 39.7080 -75.2030 47° Northeast 435 501 31,000  Level FlightAware ADS-B
Fri 09:31:06 AM 39.7750 -75.1070 48° Northeast 438 504 31,000  Level FlightAware ADS-B
Fri 09:31:46 AM 39.8220 -75.0420 47° Northeast 438 504 31,000  Level FlightAware ADS-B
Fri 09:32:23 AM 39.8650 -74.9810 47° Northeast 438 504 31,000  Level FlightAware ADS-B
Fri 09:32:59 AM 39.9080 -74.9220 46° Northeast 438 504 31,000  Level FlightAware ADS-B
Fri 09:33:37 AM 39.9520 -74.8590 48° Northeast 438 504 31,000  Level FlightAware ADS-B
Fri 09:34:15 AM 39.9970 -74.7970 47° Northeast 438 504 31,000  Level FlightAware ADS-B
Fri 09:35:02 AM 40.0520 -74.7200 47° Northeast 438 504 31,000  Level FlightAware ADS-B
Fri 09:35:50 AM 40.1080 -74.6410 47° Northeast 438 504 31,000  Level FlightAware ADS-B
Fri 09:36:27 AM 40.1520 -74.5800 47° Northeast 438 504 31,000  Level FlightAware ADS-B
Fri 09:37:03 AM 40.1940 -74.5200 47° Northeast 438 504 31,000  Level FlightAware ADS-B
Fri 09:37:49 AM 40.2480 -74.4440 47° Northeast 438 504 31,000  Level FlightAware ADS-B
Fri 09:38:25 AM 40.2900 -74.3850 47° Northeast 438 504 31,000  Level FlightAware ADS-B
Fri 09:39:01 AM 40.3330 -74.3250 47° Northeast 438 504 31,000  Level FlightAware ADS-B
Fri 09:39:38 AM 40.3760 -74.2640 47° Northeast 438 504 31,000  Level FlightAware ADS-B
Fri 09:40:15 AM 40.4200 -74.2030 47° Northeast 438 504 31,000  Level FlightAware ADS-B
Fri 09:40:52 AM 40.4630 -74.1420 47° Northeast 438 504 31,000 -2,165 Level FlightAware ADS-B
Fri 09:43:29 AM 40.6558 -73.6411 47° Northeast 377 434 24,000 -1,927 Descending Boston Center
Fri 09:44:30 AM 40.7361 -73.5575 38° Northeast 377 434 24,000  Level Boston Center
Fri 09:45:30 AM 40.8244 -73.4714 36° Northeast 382 440 24,000 -100 Level Boston Center
Fri 09:46:30 AM 40.9003 -73.3736 44° Northeast 382 440 23,800 -508 Descending Boston Center
Fri 09:47:28 AM 40.9844 -73.2567 46° Northeast 382 440 23,000 -403 Descending Boston Center
Fri 09:48:29 AM 41.0603 -73.1475 47° Northeast 394 453 23,000  Level Boston Center
Fri 09:49:29 AM 41.1275 -73.0436 49° Northeast 404 465 23,000  Level Boston Center
Fri 09:50:30 AM 41.2031 -72.9283 49° Northeast 414 476 23,000  Level Boston Center
Fri 09:51:30 AM 41.2619 -72.7992 59° Northeast 414 476 23,000  Level Boston Center
Fri 09:52:28 AM 41.3206 -72.6447 63° Northeast 414 476 23,000  Level Boston Center
Fri 09:53:28 AM 41.3708 -72.5064 64° Northeast 414 476 23,000 -248 Level Boston Center
Fri 09:54:29 AM 41.4208 -72.3708 64° Northeast 409 471 22,500 -793 Descending Boston Center
Fri 09:55:29 AM 41.4644 -72.2517 64° Northeast 402 463 21,400 -1,140 Descending Boston Center
Fri 09:56:30 AM 41.5122 -72.1186 64° Northeast 397 457 20,200 -1,513 Descending Boston Center
Fri 09:57:28 AM 41.5636 -71.9739 65° Northeast 397 457 18,400 -1,831 Descending Boston Center
Fri 09:58:28 AM 41.6028 -71.8461 68° East 381 438 16,600 -1,884 Descending Boston Center
Fri 09:59:29 AM 41.6356 -71.7375 68° East 355 409 14,600 -2,164 Descending Boston Center
Fri 10:00:30 AM 41.6719 -71.6064 70° East 344 396 12,200 -1,765 Descending Boston Center
Fri 10:01:28 AM 41.7025 -71.5058 68° East 326 375 11,100 -555 Descending Boston Center
Fri 10:02:29 AM 41.7369 -71.3997 66° East 300 345 11,100 -50 Level Boston Center
Fri 10:03:29 AM 41.7822 -71.3208 52° Northeast 287 330 11,000 -50 Descending Boston Center
Fri 10:04:30 AM 41.8400 -71.2614 37° Northeast 258 297 11,000 -454 Level Boston Center
Fri 10:05:28 AM 41.8939 -71.2325 22° Northeast 231 266 10,100 -1,109 Descending Boston Center
Fri 10:06:29 AM 41.9600 -71.2006 20° North 231 266 8,800 -1,131 Descending Boston Center
Fri 10:07:30 AM 42.0142 -71.1769 18° North 226 260 7,800 -934 Descending Boston Center
Fri 10:08:31 AM 42.0761 -71.1450 21° North 221 254 6,900 -864 Descending Boston Center
Fri 10:09:28 AM 42.1156 -71.1247 21° North 193 222 6,100 -1,026 Descending Boston Center
Fri 10:10:28 AM 42.1653 -71.1039 17° North 166 191 4,900 -1,289 Descending Boston Center
Fri 10:11:29 AM 42.2025 -71.0836 22° Northeast 161 185 3,500 -1,240 Descending Boston Center
Fri 10:12:29 AM 42.2461 -71.0631 19° North 156 180 2,400 -992 Descending Boston Center
Fri 10:13:30 AM 42.2833 -71.0453 19° North 156 180 1,500 -694 Descending Boston Center
Fri 10:14:30 AM 42.3250 -71.0275 18° North 150 173 1,000 -458 Descending Boston Center
Fri 10:15:28 AM 42.3622 -71.0128 16° North 145 167 600 -414 Descending Boston Center

Login

Don't have an account? Register now (free) for customized features, flight alerts, and more!